sensor_id;sensor_type;location;lat;lon;timestamp;P1;durP1;ratioP1;P2;durP2;ratioP2
24739;SDS011;45234;48.148;17.128;2024-03-06T00:02:05;61.40;;;37.67;;
24739;SDS011;45234;48.148;17.128;2024-03-06T00:04:33;64.15;;;37.45;;
24739;SDS011;45234;48.148;17.128;2024-03-06T00:07:00;64.35;;;36.30;;
24739;SDS011;45234;48.148;17.128;2024-03-06T00:09:27;60.42;;;35.63;;
24739;SDS011;45234;48.148;17.128;2024-03-06T00:11:54;56.50;;;35.08;;
24739;SDS011;45234;48.148;17.128;2024-03-06T00:14:23;61.88;;;34.83;;
24739;SDS011;45234;48.148;17.128;2024-03-06T00:16:50;58.17;;;35.92;;
24739;SDS011;45234;48.148;17.128;2024-03-06T00:19:18;62.63;;;37.00;;
24739;SDS011;45234;48.148;17.128;2024-03-06T00:21:46;61.72;;;36.22;;
24739;SDS011;45234;48.148;17.128;2024-03-06T00:24:13;66.43;;;37.45;;
24739;SDS011;45234;48.148;17.128;2024-03-06T00:26:44;63.05;;;36.67;;
24739;SDS011;45234;48.148;17.128;2024-03-06T00:29:12;63.50;;;36.60;;
24739;SDS011;45234;48.148;17.128;2024-03-06T00:31:43;66.13;;;37.75;;
24739;SDS011;45234;48.148;17.128;2024-03-06T00:34:11;66.18;;;38.83;;
24739;SDS011;45234;48.148;17.128;2024-03-06T00:36:39;67.95;;;39.63;;
24739;SDS011;45234;48.148;17.128;2024-03-06T00:39:07;62.72;;;38.28;;
24739;SDS011;45234;48.148;17.128;2024-03-06T00:41:34;67.40;;;38.78;;
24739;SDS011;45234;48.148;17.128;2024-03-06T00:44:01;60.75;;;36.70;;
24739;SDS011;45234;48.148;17.128;2024-03-06T00:46:28;66.75;;;38.35;;
24739;SDS011;45234;48.148;17.128;2024-03-06T00:48:55;65.72;;;39.20;;
24739;SDS011;45234;48.148;17.128;2024-03-06T00:51:22;73.95;;;44.85;;
24739;SDS011;45234;48.148;17.128;2024-03-06T00:54:05;71.35;;;39.83;;
24739;SDS011;45234;48.148;17.128;2024-03-06T00:56:32;62.50;;;38.00;;
24739;SDS011;45234;48.148;17.128;2024-03-06T00:59:02;61.88;;;36.10;;
24739;SDS011;45234;48.148;17.128;2024-03-06T01:01:29;58.92;;;35.13;;
24739;SDS011;45234;48.148;17.128;2024-03-06T01:03:56;62.35;;;36.63;;
24739;SDS011;45234;48.148;17.128;2024-03-06T01:06:22;58.45;;;35.65;;
24739;SDS011;45234;48.148;17.128;2024-03-06T01:08:49;56.95;;;35.92;;
24739;SDS011;45234;48.148;17.128;2024-03-06T01:11:16;61.95;;;36.60;;
24739;SDS011;45234;48.148;17.128;2024-03-06T01:13:43;57.22;;;35.10;;
24739;SDS011;45234;48.148;17.128;2024-03-06T01:16:10;56.83;;;34.92;;
24739;SDS011;45234;48.148;17.128;2024-03-06T01:18:36;57.22;;;36.60;;
24739;SDS011;45234;48.148;17.128;2024-03-06T01:21:04;59.60;;;37.38;;
24739;SDS011;45234;48.148;17.128;2024-03-06T01:23:30;64.22;;;36.22;;
24739;SDS011;45234;48.148;17.128;2024-03-06T01:25:57;63.03;;;37.30;;
24739;SDS011;45234;48.148;17.128;2024-03-06T01:28:24;64.93;;;38.58;;
24739;SDS011;45234;48.148;17.128;2024-03-06T01:30:51;65.80;;;37.90;;
24739;SDS011;45234;48.148;17.128;2024-03-06T01:33:18;65.45;;;38.38;;
24739;SDS011;45234;48.148;17.128;2024-03-06T01:35:45;64.82;;;37.92;;
24739;SDS011;45234;48.148;17.128;2024-03-06T01:38:12;65.40;;;39.20;;
24739;SDS011;45234;48.148;17.128;2024-03-06T01:40:42;64.72;;;37.65;;
24739;SDS011;45234;48.148;17.128;2024-03-06T01:43:20;63.55;;;37.50;;
24739;SDS011;45234;48.148;17.128;2024-03-06T01:45:48;63.28;;;37.00;;
24739;SDS011;45234;48.148;17.128;2024-03-06T01:48:16;66.88;;;37.80;;
24739;SDS011;45234;48.148;17.128;2024-03-06T01:50:43;66.78;;;38.72;;
24739;SDS011;45234;48.148;17.128;2024-03-06T01:53:10;67.03;;;39.58;;
24739;SDS011;45234;48.148;17.128;2024-03-06T01:55:38;66.68;;;39.45;;
24739;SDS011;45234;48.148;17.128;2024-03-06T01:58:05;64.45;;;38.63;;
24739;SDS011;45234;48.148;17.128;2024-03-06T02:00:32;63.10;;;38.92;;
24739;SDS011;45234;48.148;17.128;2024-03-06T02:03:00;62.25;;;38.20;;
24739;SDS011;45234;48.148;17.128;2024-03-06T02:05:28;63.40;;;38.35;;
24739;SDS011;45234;48.148;17.128;2024-03-06T02:07:57;67.43;;;37.85;;
24739;SDS011;45234;48.148;17.128;2024-03-06T02:10:26;63.65;;;36.60;;
24739;SDS011;45234;48.148;17.128;2024-03-06T02:12:53;63.88;;;38.42;;
24739;SDS011;45234;48.148;17.128;2024-03-06T02:15:20;65.28;;;38.58;;
24739;SDS011;45234;48.148;17.128;2024-03-06T02:17:47;62.45;;;38.78;;
24739;SDS011;45234;48.148;17.128;2024-03-06T02:20:14;64.85;;;37.30;;
24739;SDS011;45234;48.148;17.128;2024-03-06T02:22:42;66.72;;;38.72;;
24739;SDS011;45234;48.148;17.128;2024-03-06T02:25:09;67.38;;;39.40;;
24739;SDS011;45234;48.148;17.128;2024-03-06T02:27:36;64.63;;;38.75;;
24739;SDS011;45234;48.148;17.128;2024-03-06T02:30:03;68.80;;;39.67;;
24739;SDS011;45234;48.148;17.128;2024-03-06T02:32:30;65.80;;;39.70;;
24739;SDS011;45234;48.148;17.128;2024-03-06T02:34:57;74.05;;;41.10;;
24739;SDS011;45234;48.148;17.128;2024-03-06T02:37:27;69.05;;;40.25;;
24739;SDS011;45234;48.148;17.128;2024-03-06T02:39:53;68.90;;;39.60;;
24739;SDS011;45234;48.148;17.128;2024-03-06T02:42:20;71.93;;;41.72;;
24739;SDS011;45234;48.148;17.128;2024-03-06T02:44:47;73.13;;;40.55;;
24739;SDS011;45234;48.148;17.128;2024-03-06T02:47:14;71.07;;;40.33;;
24739;SDS011;45234;48.148;17.128;2024-03-06T02:49:40;72.05;;;40.25;;
24739;SDS011;45234;48.148;17.128;2024-03-06T02:52:07;75.60;;;40.92;;
24739;SDS011;45234;48.148;17.128;2024-03-06T02:54:34;71.60;;;42.25;;
24739;SDS011;45234;48.148;17.128;2024-03-06T02:57:01;71.28;;;41.50;;
24739;SDS011;45234;48.148;17.128;2024-03-06T02:59:27;74.38;;;40.97;;
24739;SDS011;45234;48.148;17.128;2024-03-06T03:01:54;74.28;;;42.25;;
24739;SDS011;45234;48.148;17.128;2024-03-06T03:04:21;70.05;;;39.65;;
24739;SDS011;45234;48.148;17.128;2024-03-06T03:06:48;71.10;;;38.08;;
24739;SDS011;45234;48.148;17.128;2024-03-06T03:09:15;67.80;;;38.88;;
24739;SDS011;45234;48.148;17.128;2024-03-06T03:11:42;67.35;;;40.08;;
24739;SDS011;45234;48.148;17.128;2024-03-06T03:14:12;69.93;;;38.33;;
24739;SDS011;45234;48.148;17.128;2024-03-06T03:16:38;72.03;;;39.30;;
24739;SDS011;45234;48.148;17.128;2024-03-06T03:19:07;67.70;;;38.92;;
24739;SDS011;45234;48.148;17.128;2024-03-06T03:21:34;75.95;;;40.95;;
24739;SDS011;45234;48.148;17.128;2024-03-06T03:24:01;75.28;;;41.17;;
24739;SDS011;45234;48.148;17.128;2024-03-06T03:26:28;72.97;;;40.97;;
24739;SDS011;45234;48.148;17.128;2024-03-06T03:28:55;72.50;;;41.58;;
24739;SDS011;45234;48.148;17.128;2024-03-06T03:31:22;72.35;;;41.65;;
24739;SDS011;45234;48.148;17.128;2024-03-06T03:33:49;71.65;;;41.95;;
24739;SDS011;45234;48.148;17.128;2024-03-06T03:36:15;78.72;;;42.00;;
24739;SDS011;45234;48.148;17.128;2024-03-06T03:38:42;75.85;;;41.83;;
24739;SDS011;45234;48.148;17.128;2024-03-06T03:41:10;76.55;;;41.63;;
24739;SDS011;45234;48.148;17.128;2024-03-06T03:43:39;80.25;;;41.42;;
24739;SDS011;45234;48.148;17.128;2024-03-06T03:46:06;81.10;;;42.70;;
24739;SDS011;45234;48.148;17.128;2024-03-06T03:48:33;78.18;;;42.35;;
24739;SDS011;45234;48.148;17.128;2024-03-06T03:51:04;88.32;;;45.10;;
24739;SDS011;45234;48.148;17.128;2024-03-06T03:53:33;77.53;;;43.17;;
24739;SDS011;45234;48.148;17.128;2024-03-06T03:56:00;81.60;;;43.97;;
24739;SDS011;45234;48.148;17.128;2024-03-06T03:58:27;83.35;;;45.83;;
24739;SDS011;45234;48.148;17.128;2024-03-06T04:00:54;80.78;;;44.17;;
24739;SDS011;45234;48.148;17.128;2024-03-06T04:03:22;87.53;;;47.08;;
24739;SDS011;45234;48.148;17.128;2024-03-06T04:05:50;89.43;;;45.90;;
24739;SDS011;45234;48.148;17.128;2024-03-06T04:08:17;84.55;;;44.65;;
24739;SDS011;45234;48.148;17.128;2024-03-06T04:10:44;78.05;;;43.28;;
24739;SDS011;45234;48.148;17.128;2024-03-06T04:13:11;87.45;;;44.03;;
24739;SDS011;45234;48.148;17.128;2024-03-06T04:15:42;84.70;;;45.90;;
24739;SDS011;45234;48.148;17.128;2024-03-06T04:18:09;84.03;;;44.90;;
24739;SDS011;45234;48.148;17.128;2024-03-06T04:20:35;89.00;;;46.75;;
24739;SDS011;45234;48.148;17.128;2024-03-06T04:23:02;91.60;;;47.17;;
24739;SDS011;45234;48.148;17.128;2024-03-06T04:25:29;94.07;;;47.78;;
24739;SDS011;45234;48.148;17.128;2024-03-06T04:27:56;88.10;;;46.60;;
24739;SDS011;45234;48.148;17.128;2024-03-06T04:30:23;86.10;;;45.83;;
24739;SDS011;45234;48.148;17.128;2024-03-06T04:32:50;90.05;;;46.97;;
24739;SDS011;45234;48.148;17.128;2024-03-06T04:35:17;94.25;;;48.17;;
24739;SDS011;45234;48.148;17.128;2024-03-06T04:37:44;92.05;;;49.20;;
24739;SDS011;45234;48.148;17.128;2024-03-06T04:40:11;93.22;;;48.85;;
24739;SDS011;45234;48.148;17.128;2024-03-06T04:42:41;95.00;;;50.58;;
24739;SDS011;45234;48.148;17.128;2024-03-06T04:45:11;94.00;;;49.17;;
24739;SDS011;45234;48.148;17.128;2024-03-06T04:47:40;97.15;;;51.50;;
24739;SDS011;45234;48.148;17.128;2024-03-06T04:50:08;94.88;;;48.85;;
24739;SDS011;45234;48.148;17.128;2024-03-06T04:52:36;99.05;;;50.15;;
24739;SDS011;45234;48.148;17.128;2024-03-06T04:55:04;95.03;;;49.85;;
24739;SDS011;45234;48.148;17.128;2024-03-06T04:57:32;93.50;;;49.45;;
24739;SDS011;45234;48.148;17.128;2024-03-06T04:59:59;95.70;;;50.53;;
24739;SDS011;45234;48.148;17.128;2024-03-06T05:02:32;93.80;;;48.00;;
24739;SDS011;45234;48.148;17.128;2024-03-06T05:05:19;89.22;;;47.40;;
24739;SDS011;45234;48.148;17.128;2024-03-06T05:08:04;94.72;;;48.40;;
24739;SDS011;45234;48.148;17.128;2024-03-06T05:10:49;93.60;;;49.67;;
24739;SDS011;45234;48.148;17.128;2024-03-06T05:13:33;92.07;;;48.13;;
24739;SDS011;45234;48.148;17.128;2024-03-06T05:16:18;94.88;;;50.58;;
24739;SDS011;45234;48.148;17.128;2024-03-06T05:19:02;95.70;;;48.83;;
24739;SDS011;45234;48.148;17.128;2024-03-06T05:21:47;90.32;;;47.05;;
24739;SDS011;45234;48.148;17.128;2024-03-06T05:24:31;94.45;;;48.55;;
24739;SDS011;45234;48.148;17.128;2024-03-06T05:27:15;86.80;;;45.00;;
24739;SDS011;45234;48.148;17.128;2024-03-06T05:30:00;90.25;;;46.40;;
24739;SDS011;45234;48.148;17.128;2024-03-06T05:32:47;100.78;;;47.50;;
24739;SDS011;45234;48.148;17.128;2024-03-06T05:35:31;87.88;;;45.65;;
24739;SDS011;45234;48.148;17.128;2024-03-06T05:38:15;92.15;;;46.97;;
24739;SDS011;45234;48.148;17.128;2024-03-06T05:41:00;85.60;;;44.53;;
24739;SDS011;45234;48.148;17.128;2024-03-06T05:43:45;91.35;;;45.50;;
24739;SDS011;45234;48.148;17.128;2024-03-06T05:46:29;89.10;;;48.53;;
24739;SDS011;45234;48.148;17.128;2024-03-06T05:49:13;85.35;;;45.90;;
24739;SDS011;45234;48.148;17.128;2024-03-06T05:51:57;81.00;;;43.92;;
24739;SDS011;45234;48.148;17.128;2024-03-06T05:54:42;84.20;;;44.33;;
24739;SDS011;45234;48.148;17.128;2024-03-06T05:57:27;81.00;;;43.95;;
24739;SDS011;45234;48.148;17.128;2024-03-06T06:00:11;79.63;;;42.78;;
24739;SDS011;45234;48.148;17.128;2024-03-06T06:02:38;80.75;;;43.97;;
24739;SDS011;45234;48.148;17.128;2024-03-06T06:05:05;85.22;;;44.70;;
24739;SDS011;45234;48.148;17.128;2024-03-06T06:07:48;73.73;;;43.83;;
24739;SDS011;45234;48.148;17.128;2024-03-06T06:10:16;75.28;;;41.22;;
24739;SDS011;45234;48.148;17.128;2024-03-06T06:12:46;66.80;;;38.47;;
24739;SDS011;45234;48.148;17.128;2024-03-06T06:15:14;69.40;;;39.72;;
24739;SDS011;45234;48.148;17.128;2024-03-06T06:17:41;64.13;;;38.15;;
24739;SDS011;45234;48.148;17.128;2024-03-06T06:20:11;68.60;;;39.40;;
24739;SDS011;45234;48.148;17.128;2024-03-06T06:22:42;67.90;;;38.47;;
24739;SDS011;45234;48.148;17.128;2024-03-06T06:25:09;66.88;;;37.60;;
24739;SDS011;45234;48.148;17.128;2024-03-06T06:27:36;63.17;;;36.17;;
24739;SDS011;45234;48.148;17.128;2024-03-06T06:30:04;59.25;;;36.67;;
24739;SDS011;45234;48.148;17.128;2024-03-06T06:32:33;58.92;;;36.25;;
24739;SDS011;45234;48.148;17.128;2024-03-06T06:35:00;54.05;;;35.95;;
24739;SDS011;45234;48.148;17.128;2024-03-06T06:37:27;58.03;;;34.65;;
24739;SDS011;45234;48.148;17.128;2024-03-06T06:39:54;58.80;;;36.20;;
24739;SDS011;45234;48.148;17.128;2024-03-06T06:42:21;56.20;;;35.53;;
24739;SDS011;45234;48.148;17.128;2024-03-06T06:44:48;59.47;;;37.10;;
24739;SDS011;45234;48.148;17.128;2024-03-06T06:47:15;56.70;;;35.90;;
24739;SDS011;45234;48.148;17.128;2024-03-06T06:49:42;54.85;;;35.17;;
24739;SDS011;45234;48.148;17.128;2024-03-06T06:52:10;57.53;;;34.95;;
24739;SDS011;45234;48.148;17.128;2024-03-06T06:54:37;48.65;;;32.67;;
24739;SDS011;45234;48.148;17.128;2024-03-06T06:57:04;53.15;;;33.35;;
24739;SDS011;45234;48.148;17.128;2024-03-06T06:59:31;52.60;;;32.20;;
24739;SDS011;45234;48.148;17.128;2024-03-06T07:01:57;50.10;;;33.13;;
24739;SDS011;45234;48.148;17.128;2024-03-06T07:04:25;49.03;;;32.42;;
24739;SDS011;45234;48.148;17.128;2024-03-06T07:06:52;52.25;;;33.08;;
24739;SDS011;45234;48.148;17.128;2024-03-06T07:09:19;50.88;;;33.33;;
24739;SDS011;45234;48.148;17.128;2024-03-06T07:11:46;56.58;;;33.75;;
24739;SDS011;45234;48.148;17.128;2024-03-06T07:14:13;51.20;;;32.17;;
24739;SDS011;45234;48.148;17.128;2024-03-06T07:16:42;50.38;;;34.22;;
24739;SDS011;45234;48.148;17.128;2024-03-06T07:19:09;50.08;;;32.78;;
24739;SDS011;45234;48.148;17.128;2024-03-06T07:21:36;49.30;;;32.80;;
24739;SDS011;45234;48.148;17.128;2024-03-06T07:24:03;53.42;;;32.80;;
24739;SDS011;45234;48.148;17.128;2024-03-06T07:26:34;50.28;;;33.65;;
24739;SDS011;45234;48.148;17.128;2024-03-06T07:29:01;52.63;;;33.90;;
24739;SDS011;45234;48.148;17.128;2024-03-06T07:31:28;48.75;;;32.25;;
24739;SDS011;45234;48.148;17.128;2024-03-06T07:33:55;51.92;;;33.33;;
24739;SDS011;45234;48.148;17.128;2024-03-06T07:36:22;50.65;;;34.17;;
24739;SDS011;45234;48.148;17.128;2024-03-06T07:38:49;60.38;;;33.97;;
24739;SDS011;45234;48.148;17.128;2024-03-06T07:41:16;49.17;;;32.00;;
24739;SDS011;45234;48.148;17.128;2024-03-06T07:43:43;50.15;;;32.60;;
24739;SDS011;45234;48.148;17.128;2024-03-06T07:46:10;46.25;;;32.67;;
24739;SDS011;45234;48.148;17.128;2024-03-06T07:48:38;45.70;;;32.70;;
24739;SDS011;45234;48.148;17.128;2024-03-06T07:51:07;45.75;;;32.78;;
24739;SDS011;45234;48.148;17.128;2024-03-06T07:53:34;44.05;;;32.35;;
24739;SDS011;45234;48.148;17.128;2024-03-06T07:56:02;46.25;;;31.42;;
24739;SDS011;45234;48.148;17.128;2024-03-06T07:58:29;48.42;;;31.17;;
24739;SDS011;45234;48.148;17.128;2024-03-06T08:00:56;48.55;;;32.38;;
24739;SDS011;45234;48.148;17.128;2024-03-06T08:03:25;50.42;;;32.33;;
24739;SDS011;45234;48.148;17.128;2024-03-06T08:05:52;48.25;;;33.20;;
24739;SDS011;45234;48.148;17.128;2024-03-06T08:08:20;44.47;;;31.50;;
24739;SDS011;45234;48.148;17.128;2024-03-06T08:10:47;43.35;;;31.05;;
24739;SDS011;45234;48.148;17.128;2024-03-06T08:13:15;46.83;;;30.70;;
24739;SDS011;45234;48.148;17.128;2024-03-06T08:15:44;47.13;;;31.35;;
24739;SDS011;45234;48.148;17.128;2024-03-06T08:18:12;54.17;;;32.88;;
24739;SDS011;45234;48.148;17.128;2024-03-06T08:20:40;46.67;;;30.77;;
24739;SDS011;45234;48.148;17.128;2024-03-06T08:23:08;48.10;;;33.40;;
24739;SDS011;45234;48.148;17.128;2024-03-06T08:25:36;46.88;;;31.42;;
24739;SDS011;45234;48.148;17.128;2024-03-06T08:28:03;47.55;;;31.55;;
24739;SDS011;45234;48.148;17.128;2024-03-06T08:30:31;48.95;;;31.85;;
24739;SDS011;45234;48.148;17.128;2024-03-06T08:32:59;48.28;;;32.60;;
24739;SDS011;45234;48.148;17.128;2024-03-06T08:35:26;47.97;;;31.73;;
24739;SDS011;45234;48.148;17.128;2024-03-06T08:37:53;46.53;;;31.23;;
24739;SDS011;45234;48.148;17.128;2024-03-06T08:40:20;54.25;;;33.40;;
24739;SDS011;45234;48.148;17.128;2024-03-06T08:42:49;54.63;;;34.15;;
24739;SDS011;45234;48.148;17.128;2024-03-06T08:45:16;48.95;;;32.10;;
24739;SDS011;45234;48.148;17.128;2024-03-06T08:47:44;46.75;;;31.25;;
24739;SDS011;45234;48.148;17.128;2024-03-06T08:50:12;57.80;;;33.08;;
24739;SDS011;45234;48.148;17.128;2024-03-06T08:52:40;48.95;;;31.58;;
24739;SDS011;45234;48.148;17.128;2024-03-06T08:55:07;50.88;;;32.30;;
24739;SDS011;45234;48.148;17.128;2024-03-06T08:57:36;52.65;;;32.95;;
24739;SDS011;45234;48.148;17.128;2024-03-06T09:00:04;56.35;;;32.85;;
24739;SDS011;45234;48.148;17.128;2024-03-06T09:02:38;43.78;;;31.77;;
24739;SDS011;45234;48.148;17.128;2024-03-06T09:05:07;43.80;;;30.42;;
24739;SDS011;45234;48.148;17.128;2024-03-06T09:07:39;45.17;;;29.85;;
24739;SDS011;45234;48.148;17.128;2024-03-06T09:10:07;45.50;;;30.83;;
24739;SDS011;45234;48.148;17.128;2024-03-06T09:12:35;45.25;;;30.48;;
24739;SDS011;45234;48.148;17.128;2024-03-06T09:15:03;51.15;;;32.50;;
24739;SDS011;45234;48.148;17.128;2024-03-06T09:17:30;44.25;;;31.33;;
24739;SDS011;45234;48.148;17.128;2024-03-06T09:19:57;46.95;;;32.33;;
24739;SDS011;45234;48.148;17.128;2024-03-06T09:22:41;47.25;;;30.90;;
24739;SDS011;45234;48.148;17.128;2024-03-06T09:25:08;45.72;;;28.90;;
24739;SDS011;45234;48.148;17.128;2024-03-06T09:27:40;45.20;;;30.55;;
24739;SDS011;45234;48.148;17.128;2024-03-06T09:30:08;45.22;;;30.20;;
24739;SDS011;45234;48.148;17.128;2024-03-06T09:32:35;42.50;;;29.77;;
24739;SDS011;45234;48.148;17.128;2024-03-06T09:35:04;54.10;;;29.08;;
24739;SDS011;45234;48.148;17.128;2024-03-06T09:37:32;52.25;;;30.48;;
24739;SDS011;45234;48.148;17.128;2024-03-06T09:39:58;45.33;;;28.17;;
24739;SDS011;45234;48.148;17.128;2024-03-06T09:42:26;43.03;;;28.92;;
24739;SDS011;45234;48.148;17.128;2024-03-06T09:44:53;50.17;;;32.38;;
24739;SDS011;45234;48.148;17.128;2024-03-06T09:47:21;43.78;;;29.42;;
24739;SDS011;45234;48.148;17.128;2024-03-06T09:49:51;47.13;;;29.42;;
24739;SDS011;45234;48.148;17.128;2024-03-06T09:52:24;42.30;;;27.90;;
24739;SDS011;45234;48.148;17.128;2024-03-06T09:54:55;36.25;;;25.00;;
24739;SDS011;45234;48.148;17.128;2024-03-06T09:57:22;37.10;;;23.17;;
24739;SDS011;45234;48.148;17.128;2024-03-06T09:59:50;40.05;;;27.20;;
24739;SDS011;45234;48.148;17.128;2024-03-06T10:02:39;38.33;;;24.48;;
24739;SDS011;45234;48.148;17.128;2024-03-06T10:05:21;41.40;;;26.55;;
24739;SDS011;45234;48.148;17.128;2024-03-06T10:07:52;40.00;;;24.83;;
24739;SDS011;45234;48.148;17.128;2024-03-06T10:10:19;33.42;;;23.35;;
24739;SDS011;45234;48.148;17.128;2024-03-06T10:12:49;36.80;;;24.35;;
24739;SDS011;45234;48.148;17.128;2024-03-06T10:15:16;37.35;;;24.48;;
24739;SDS011;45234;48.148;17.128;2024-03-06T10:17:43;37.08;;;24.83;;
24739;SDS011;45234;48.148;17.128;2024-03-06T10:20:21;38.00;;;25.33;;
24739;SDS011;45234;48.148;17.128;2024-03-06T10:22:50;40.38;;;25.75;;
24739;SDS011;45234;48.148;17.128;2024-03-06T10:25:23;39.17;;;25.35;;
24739;SDS011;45234;48.148;17.128;2024-03-06T10:28:11;39.13;;;25.40;;
24739;SDS011;45234;48.148;17.128;2024-03-06T10:30:38;34.47;;;23.13;;
24739;SDS011;45234;48.148;17.128;2024-03-06T10:33:10;40.10;;;23.35;;
24739;SDS011;45234;48.148;17.128;2024-03-06T10:35:42;36.15;;;23.75;;
24739;SDS011;45234;48.148;17.128;2024-03-06T10:38:11;36.53;;;23.67;;
24739;SDS011;45234;48.148;17.128;2024-03-06T10:40:39;36.72;;;24.20;;
24739;SDS011;45234;48.148;17.128;2024-03-06T10:43:08;39.25;;;25.38;;
24739;SDS011;45234;48.148;17.128;2024-03-06T10:45:54;35.03;;;23.70;;
24739;SDS011;45234;48.148;17.128;2024-03-06T10:48:27;34.90;;;22.48;;
24739;SDS011;45234;48.148;17.128;2024-03-06T10:50:55;36.50;;;22.67;;
24739;SDS011;45234;48.148;17.128;2024-03-06T10:53:23;32.63;;;21.65;;
24739;SDS011;45234;48.148;17.128;2024-03-06T10:55:54;34.20;;;21.95;;
24739;SDS011;45234;48.148;17.128;2024-03-06T10:58:23;34.97;;;21.92;;
24739;SDS011;45234;48.148;17.128;2024-03-06T11:00:50;33.45;;;21.98;;
24739;SDS011;45234;48.148;17.128;2024-03-06T11:03:18;37.00;;;22.40;;
24739;SDS011;45234;48.148;17.128;2024-03-06T11:05:45;32.38;;;20.95;;
24739;SDS011;45234;48.148;17.128;2024-03-06T11:08:18;31.75;;;21.15;;
24739;SDS011;45234;48.148;17.128;2024-03-06T11:10:45;27.60;;;21.08;;
24739;SDS011;45234;48.148;17.128;2024-03-06T11:13:22;34.97;;;22.90;;
24739;SDS011;45234;48.148;17.128;2024-03-06T11:15:52;33.28;;;20.92;;
24739;SDS011;45234;48.148;17.128;2024-03-06T11:23:34;28.38;;;18.52;;
24739;SDS011;45234;48.148;17.128;2024-03-06T11:26:04;30.02;;;21.05;;
24739;SDS011;45234;48.148;17.128;2024-03-06T11:28:32;26.00;;;17.55;;
24739;SDS011;45234;48.148;17.128;2024-03-06T11:31:08;28.15;;;17.13;;
24739;SDS011;45234;48.148;17.128;2024-03-06T11:33:42;27.42;;;17.58;;
24739;SDS011;45234;48.148;17.128;2024-03-06T11:38:59;29.38;;;17.77;;
24739;SDS011;45234;48.148;17.128;2024-03-06T11:44:17;30.75;;;17.45;;
24739;SDS011;45234;48.148;17.128;2024-03-06T11:46:58;23.45;;;14.88;;
24739;SDS011;45234;48.148;17.128;2024-03-06T11:49:27;24.17;;;15.70;;
24739;SDS011;45234;48.148;17.128;2024-03-06T11:51:57;26.38;;;16.05;;
24739;SDS011;45234;48.148;17.128;2024-03-06T11:54:29;24.75;;;15.48;;
24739;SDS011;45234;48.148;17.128;2024-03-06T11:56:57;24.45;;;16.17;;
24739;SDS011;45234;48.148;17.128;2024-03-06T11:59:26;23.00;;;16.10;;
24739;SDS011;45234;48.148;17.128;2024-03-06T12:02:03;22.98;;;16.33;;
24739;SDS011;45234;48.148;17.128;2024-03-06T12:04:32;24.00;;;16.95;;
24739;SDS011;45234;48.148;17.128;2024-03-06T12:07:00;24.30;;;15.25;;
24739;SDS011;45234;48.148;17.128;2024-03-06T12:09:35;29.65;;;16.20;;
24739;SDS011;45234;48.148;17.128;2024-03-06T12:12:08;22.17;;;16.33;;
24739;SDS011;45234;48.148;17.128;2024-03-06T12:14:36;24.05;;;16.13;;
24739;SDS011;45234;48.148;17.128;2024-03-06T12:17:05;22.80;;;17.08;;
24739;SDS011;45234;48.148;17.128;2024-03-06T12:19:36;20.77;;;14.95;;
24739;SDS011;45234;48.148;17.128;2024-03-06T12:22:03;23.95;;;14.43;;
24739;SDS011;45234;48.148;17.128;2024-03-06T12:24:31;24.52;;;15.93;;
24739;SDS011;45234;48.148;17.128;2024-03-06T12:27:01;21.90;;;14.52;;
24739;SDS011;45234;48.148;17.128;2024-03-06T12:29:30;24.35;;;16.25;;
24739;SDS011;45234;48.148;17.128;2024-03-06T12:31:58;24.40;;;14.63;;
24739;SDS011;45234;48.148;17.128;2024-03-06T12:34:27;25.05;;;16.25;;
24739;SDS011;45234;48.148;17.128;2024-03-06T12:36:56;23.80;;;14.45;;
24739;SDS011;45234;48.148;17.128;2024-03-06T12:39:33;21.67;;;14.63;;
24739;SDS011;45234;48.148;17.128;2024-03-06T12:42:02;22.77;;;14.98;;
24739;SDS011;45234;48.148;17.128;2024-03-06T12:44:29;23.02;;;14.63;;
24739;SDS011;45234;48.148;17.128;2024-03-06T12:46:56;21.55;;;15.23;;
24739;SDS011;45234;48.148;17.128;2024-03-06T12:49:23;23.63;;;14.35;;
24739;SDS011;45234;48.148;17.128;2024-03-06T12:51:49;23.08;;;14.95;;
24739;SDS011;45234;48.148;17.128;2024-03-06T12:54:16;21.17;;;13.70;;
24739;SDS011;45234;48.148;17.128;2024-03-06T12:56:44;20.17;;;14.05;;
24739;SDS011;45234;48.148;17.128;2024-03-06T12:59:11;22.83;;;14.32;;
24739;SDS011;45234;48.148;17.128;2024-03-06T13:01:38;20.50;;;14.15;;
24739;SDS011;45234;48.148;17.128;2024-03-06T13:04:05;23.60;;;13.57;;
24739;SDS011;45234;48.148;17.128;2024-03-06T13:06:36;21.73;;;13.50;;
24739;SDS011;45234;48.148;17.128;2024-03-06T13:09:02;17.92;;;12.52;;
24739;SDS011;45234;48.148;17.128;2024-03-06T13:11:29;20.55;;;13.13;;
24739;SDS011;45234;48.148;17.128;2024-03-06T13:13:56;25.33;;;13.85;;
24739;SDS011;45234;48.148;17.128;2024-03-06T13:16:23;19.67;;;14.05;;
24739;SDS011;45234;48.148;17.128;2024-03-06T13:18:50;21.92;;;14.48;;
24739;SDS011;45234;48.148;17.128;2024-03-06T13:21:18;19.88;;;14.77;;
24739;SDS011;45234;48.148;17.128;2024-03-06T13:23:45;21.70;;;13.27;;
24739;SDS011;45234;48.148;17.128;2024-03-06T13:26:13;21.48;;;13.98;;
24739;SDS011;45234;48.148;17.128;2024-03-06T13:28:40;21.63;;;13.23;;
24739;SDS011;45234;48.148;17.128;2024-03-06T13:31:07;26.25;;;15.02;;
24739;SDS011;45234;48.148;17.128;2024-03-06T13:33:34;23.17;;;14.77;;
24739;SDS011;45234;48.148;17.128;2024-03-06T13:36:01;22.90;;;15.48;;
24739;SDS011;45234;48.148;17.128;2024-03-06T13:38:30;24.63;;;16.38;;
24739;SDS011;45234;48.148;17.128;2024-03-06T13:40:57;25.73;;;17.60;;
24739;SDS011;45234;48.148;17.128;2024-03-06T13:43:24;27.75;;;19.35;;
24739;SDS011;45234;48.148;17.128;2024-03-06T13:45:51;29.42;;;19.65;;
24739;SDS011;45234;48.148;17.128;2024-03-06T13:48:17;30.02;;;20.65;;
24739;SDS011;45234;48.148;17.128;2024-03-06T13:50:45;32.13;;;21.20;;
24739;SDS011;45234;48.148;17.128;2024-03-06T13:53:12;31.63;;;21.20;;
24739;SDS011;45234;48.148;17.128;2024-03-06T13:55:39;35.70;;;22.75;;
24739;SDS011;45234;48.148;17.128;2024-03-06T13:58:07;34.50;;;23.00;;
24739;SDS011;45234;48.148;17.128;2024-03-06T14:00:34;37.33;;;24.67;;
24739;SDS011;45234;48.148;17.128;2024-03-06T14:03:01;36.30;;;25.17;;
24739;SDS011;45234;48.148;17.128;2024-03-06T14:05:28;35.15;;;23.85;;
24739;SDS011;45234;48.148;17.128;2024-03-06T14:07:54;41.22;;;25.60;;
24739;SDS011;45234;48.148;17.128;2024-03-06T14:10:22;36.25;;;23.73;;
24739;SDS011;45234;48.148;17.128;2024-03-06T14:12:50;38.20;;;24.02;;
24739;SDS011;45234;48.148;17.128;2024-03-06T14:15:18;37.05;;;22.15;;
24739;SDS011;45234;48.148;17.128;2024-03-06T14:17:45;37.55;;;23.67;;
24739;SDS011;45234;48.148;17.128;2024-03-06T14:20:12;41.20;;;24.50;;
24739;SDS011;45234;48.148;17.128;2024-03-06T14:22:41;39.95;;;24.83;;
24739;SDS011;45234;48.148;17.128;2024-03-06T14:25:08;37.85;;;23.27;;
24739;SDS011;45234;48.148;17.128;2024-03-06T14:27:35;38.67;;;22.55;;
24739;SDS011;45234;48.148;17.128;2024-03-06T14:30:03;37.13;;;24.80;;
24739;SDS011;45234;48.148;17.128;2024-03-06T14:32:33;43.65;;;23.88;;